createdAt,value
2018-05-08T00:01:38.630Z,99770.32
2018-05-08T00:05:41.120Z,99764.64
2018-05-08T00:09:43.569Z,99764.87
2018-05-08T00:13:46.046Z,99761.91
2018-05-08T00:17:48.508Z,99755.95
2018-05-08T00:21:50.994Z,99745.38
2018-05-08T00:25:53.434Z,99744.14
2018-05-08T00:29:55.904Z,99739.82
2018-05-08T00:33:58.369Z,99729.28
2018-05-08T00:38:00.855Z,99728.45
2018-05-08T00:42:03.314Z,99725.42
2018-05-08T00:46:05.807Z,99725.55
2018-05-08T00:50:08.286Z,99725.20
2018-05-08T00:54:10.771Z,99727.53
2018-05-08T00:58:13.254Z,99722.70
2018-05-08T01:02:15.699Z,99720.57
2018-05-08T01:06:18.178Z,99720.28
2018-05-08T01:10:20.676Z,99723.50
2018-05-08T01:14:23.134Z,99721.91
2018-05-08T01:18:25.615Z,99715.45
2018-05-08T01:22:28.093Z,99707.56
2018-05-08T01:26:30.581Z,99704.16
2018-05-08T01:30:33.026Z,99702.89
2018-05-08T01:34:35.510Z,99709.64
2018-05-08T01:38:38.003Z,99702.19
2018-05-08T01:42:40.459Z,99704.95
2018-05-08T01:46:42.935Z,99698.41
2018-05-08T01:50:45.410Z,99689.14
2018-05-08T01:54:47.887Z,99693.15
2018-05-08T01:58:50.369Z,99683.88
2018-05-08T02:02:52.847Z,99686.54
2018-05-08T02:06:55.327Z,99695.83
2018-05-08T02:10:57.775Z,99691.95
2018-05-08T02:15:00.260Z,99687.68
2018-05-08T02:19:02.715Z,99688.59
2018-05-08T02:23:05.244Z,99680.23
2018-05-08T02:27:07.722Z,99682.45
2018-05-08T02:31:10.212Z,99682.50
2018-05-08T02:35:12.703Z,99674.56
2018-05-08T02:39:15.154Z,99676.92
2018-05-08T02:43:17.679Z,99669.91
2018-05-08T02:47:20.175Z,99660.64
2018-05-08T02:51:22.647Z,99658.93
2018-05-08T02:55:25.149Z,99661.23
2018-05-08T02:59:27.603Z,99648.47
2018-05-08T03:03:30.089Z,99647.20
2018-05-08T03:07:32.596Z,99647.66
2018-05-08T03:11:35.052Z,99646.82
2018-05-08T03:15:37.563Z,99641.19
2018-05-08T03:19:40.017Z,99640.34
2018-05-08T03:23:42.508Z,99642.63
2018-05-08T03:27:44.986Z,99643.58
2018-05-08T03:31:47.450Z,99651.14
2018-05-08T03:35:49.935Z,99647.28
2018-05-08T03:39:52.384Z,99654.88
2018-05-08T03:43:54.859Z,99657.55
2018-05-08T03:47:57.345Z,99658.91
2018-05-08T03:51:59.839Z,99656.75
2018-05-08T03:56:02.315Z,99651.92
2018-05-08T04:00:04.793Z,99646.36
2018-05-08T04:04:19.245Z,99638.42
2018-05-08T04:08:31.293Z,99645.98
2018-05-08T04:12:33.783Z,99641.58
2018-05-08T04:16:36.275Z,99644.73
2018-05-08T04:20:38.901Z,99648.36
2018-05-08T04:24:41.548Z,99646.58
2018-05-08T04:28:44.110Z,99647.86
2018-05-08T04:32:46.640Z,99644.73
2018-05-08T04:36:49.247Z,99652.56
2018-05-08T04:41:01.981Z,99642.72
2018-05-08T04:45:04.479Z,99641.30
2018-05-08T04:49:06.938Z,99632.80
2018-05-08T04:53:09.424Z,99640.61
2018-05-08T04:57:11.906Z,99623.61
2018-05-08T05:01:14.371Z,99627.41
2018-05-08T05:05:16.847Z,99634.16
2018-05-08T05:09:19.340Z,99631.11
2018-05-08T05:13:21.829Z,99627.91
2018-05-08T05:17:24.314Z,99615.75
2018-05-08T05:21:26.778Z,99621.69
2018-05-08T05:25:29.263Z,99608.79
2018-05-08T05:29:31.735Z,99623.96
2018-05-08T05:33:34.214Z,99616.81
2018-05-08T05:37:36.696Z,99623.10
2018-05-08T05:41:39.175Z,99616.45
2018-05-08T05:45:41.629Z,99612.74
2018-05-08T05:49:44.102Z,99609.31
2018-05-08T05:53:46.551Z,99611.86
2018-05-08T05:57:49.060Z,99596.23
2018-05-08T06:01:51.570Z,99600.13
2018-05-08T06:05:54.055Z,99602.38
2018-05-08T06:09:56.516Z,99609.55
2018-05-08T06:13:59.001Z,99605.36
2018-05-08T06:18:01.492Z,99600.64
2018-05-08T06:22:03.990Z,99593.75
2018-05-08T06:26:06.470Z,99591.64
2018-05-08T06:30:08.956Z,99596.37
2018-05-08T06:34:11.442Z,99602.89
2018-05-08T06:38:13.923Z,99594.78
2018-05-08T06:42:16.412Z,99588.68
2018-05-08T06:46:18.921Z,99591.03
2018-05-08T06:50:21.377Z,99592.16
2018-05-08T06:54:23.864Z,99586.45
2018-05-08T06:58:26.351Z,99589.48
2018-05-08T07:02:28.837Z,99581.00
2018-05-08T07:06:31.278Z,99578.35
2018-05-08T07:10:33.759Z,99563.69
2018-05-08T07:14:36.247Z,99562.94
2018-05-08T07:18:38.726Z,99565.87
2018-05-08T07:22:41.214Z,99563.71
2018-05-08T07:26:43.695Z,99561.16
2018-05-08T07:30:46.225Z,99563.87
2018-05-08T07:34:48.687Z,99557.73
2018-05-08T07:38:51.163Z,99567.25
2018-05-08T07:42:53.638Z,99561.27
2018-05-08T07:46:56.099Z,99562.18
2018-05-08T07:50:58.586Z,99550.13
2018-05-08T07:55:01.079Z,99549.59
2018-05-08T07:59:03.545Z,99546.22
2018-05-08T08:03:06.031Z,99548.02
2018-05-08T08:07:08.501Z,99545.75
2018-05-08T08:11:10.950Z,99549.18
2018-05-08T08:15:13.419Z,99546.98
2018-05-08T08:19:15.895Z,99547.84
2018-05-08T08:23:18.361Z,99545.69
2018-05-08T08:27:20.834Z,99541.68
2018-05-08T08:31:23.303Z,99542.47
2018-05-08T08:35:25.757Z,99536.63
2018-05-08T08:39:28.246Z,99538.09
2018-05-08T08:43:30.736Z,99534.09
2018-05-08T08:47:33.195Z,99520.89
2018-05-08T08:51:35.687Z,99520.41
2018-05-08T08:55:38.178Z,99519.00
2018-05-08T08:59:40.655Z,99518.73
2018-05-08T09:03:43.154Z,99512.22
2018-05-08T09:07:45.617Z,99518.52
2018-05-08T09:11:48.097Z,99515.45
2018-05-08T09:15:50.570Z,99501.75
2018-05-08T09:19:53.023Z,99507.23
2018-05-08T09:23:55.506Z,99497.17
2018-05-08T09:27:57.980Z,99499.67
2018-05-08T09:32:00.463Z,99494.47
2018-05-08T09:36:02.949Z,99484.51
2018-05-08T09:40:05.432Z,99486.05
2018-05-08T09:44:07.908Z,99478.80
2018-05-08T09:48:10.383Z,99472.63
2018-05-08T09:52:12.866Z,99467.82
2018-05-08T09:56:15.343Z,99454.75
2018-05-08T10:00:17.796Z,99453.13
2018-05-08T10:04:20.275Z,99436.95
2018-05-08T10:08:22.750Z,99439.31
2018-05-08T10:12:25.236Z,99434.00
2018-05-08T10:16:27.695Z,99431.17
2018-05-08T10:20:30.229Z,99431.73
2018-05-08T10:24:32.672Z,99419.33
2018-05-08T10:28:35.147Z,99428.55
2018-05-08T10:32:37.596Z,99418.09
2018-05-08T10:36:40.074Z,99417.38
2018-05-08T10:40:42.558Z,99414.46
2018-05-08T10:44:45.019Z,99408.38
2018-05-08T10:48:47.490Z,99412.53
2018-05-08T10:52:49.969Z,99411.75
2018-05-08T10:56:52.454Z,99395.72
2018-05-08T11:00:54.903Z,99389.73
2018-05-08T11:04:57.418Z,99381.13
2018-05-08T11:08:59.868Z,99390.13
2018-05-08T11:13:02.318Z,99376.41
2018-05-08T11:17:04.786Z,99371.20
2018-05-08T11:21:07.264Z,99364.07
2018-05-08T11:25:09.729Z,99363.30
2018-05-08T11:29:12.215Z,99354.08
2018-05-08T11:33:14.712Z,99359.41
2018-05-08T11:37:17.202Z,99354.81
2018-05-08T11:41:19.659Z,99344.62
2018-05-08T11:45:22.150Z,99339.43
2018-05-08T11:49:24.603Z,99347.66
2018-05-08T11:53:27.084Z,99337.72
2018-05-08T11:57:29.562Z,99322.80
2018-05-08T12:01:32.048Z,99318.91
2018-05-08T12:05:34.518Z,99316.41
2018-05-08T12:09:36.989Z,99307.18
2018-05-08T12:13:39.467Z,99302.14
2018-05-08T12:17:41.944Z,99291.33
2018-05-08T12:21:44.513Z,99281.84
2018-05-08T12:25:46.923Z,99283.45
2018-05-08T12:29:49.384Z,99281.55
2018-05-08T12:33:51.870Z,99281.14
2018-05-08T12:37:54.330Z,99263.17
2018-05-08T12:41:56.824Z,99256.27
2018-05-08T12:45:59.321Z,99254.44
2018-05-08T12:50:01.783Z,99247.22
2018-05-08T12:54:04.263Z,99232.78
2018-05-08T12:58:06.735Z,99220.95
2018-05-08T13:02:09.443Z,99219.84
2018-05-08T13:06:11.964Z,99213.98
2018-05-08T13:10:14.502Z,99207.45
2018-05-08T13:14:17.050Z,99204.62
2018-05-08T13:18:19.625Z,99193.47
2018-05-08T13:22:22.024Z,99185.19
2018-05-08T13:26:24.507Z,99182.56
2018-05-08T13:30:27.986Z,99173.51
2018-05-08T13:34:30.471Z,99181.14
2018-05-08T13:38:32.962Z,99178.54
2018-05-08T13:42:35.456Z,99170.36
2018-05-08T13:46:37.941Z,99164.80
2018-05-08T13:50:40.409Z,99166.08
2018-05-08T13:54:42.889Z,99160.47
2018-05-08T13:58:45.372Z,99163.81
2018-05-08T14:02:47.860Z,99162.55
2018-05-08T14:06:50.443Z,99156.02
2018-05-08T14:10:52.815Z,99148.92
2018-05-08T14:14:55.345Z,99147.98
2018-05-08T14:18:57.805Z,99146.59
2018-05-08T14:23:00.282Z,99158.41
2018-05-08T14:27:02.775Z,99165.12
2018-05-08T14:31:05.250Z,99172.78
2018-05-08T14:35:07.733Z,99176.12
2018-05-08T14:39:10.188Z,99185.08
2018-05-08T14:43:12.661Z,99194.88
2018-05-08T14:47:15.136Z,99188.46
2018-05-08T14:51:17.607Z,99191.74
2018-05-08T14:55:20.092Z,99194.21
2018-05-08T14:59:22.556Z,99198.41
2018-05-08T15:03:25.043Z,99202.00
2018-05-08T15:07:27.483Z,99202.89
2018-05-08T15:11:29.969Z,99203.79
2018-05-08T15:15:32.454Z,99199.23
2018-05-08T15:19:34.968Z,99198.95
2018-05-08T15:23:37.419Z,99194.27
2018-05-08T15:27:39.899Z,99180.33
2018-05-08T15:31:42.421Z,99182.93
2018-05-08T15:35:44.882Z,99170.73
2018-05-08T15:39:47.368Z,99168.13
2018-05-08T15:43:49.876Z,99161.83
2018-05-08T15:47:52.364Z,99160.05
2018-05-08T15:51:55.843Z,99155.25
2018-05-08T15:55:58.313Z,99153.63
2018-05-08T16:00:00.794Z,99156.88
2018-05-08T16:04:03.281Z,99177.93
2018-05-08T16:08:05.744Z,99191.38
2018-05-08T16:12:08.244Z,99217.92
2018-05-08T16:16:10.784Z,99251.58
2018-05-08T16:20:14.223Z,99254.89
2018-05-08T16:24:16.709Z,99251.34
2018-05-08T16:28:19.309Z,99262.17
2018-05-08T16:32:21.812Z,99269.23
2018-05-08T16:36:24.292Z,99276.48
2018-05-08T16:40:26.741Z,99305.36
2018-05-08T16:44:29.223Z,99319.92
2018-05-08T16:48:31.806Z,99327.97
2018-05-08T16:52:34.207Z,99315.20
2018-05-08T16:56:36.876Z,99330.03
2018-05-08T17:00:39.360Z,99334.09
2018-05-08T17:04:42.834Z,99330.60
2018-05-08T17:08:45.320Z,99283.20
2018-05-08T17:12:47.775Z,99308.18
2018-05-08T17:16:50.260Z,99291.14
2018-05-08T17:20:52.727Z,99256.42
2018-05-08T17:24:55.215Z,99249.99
2018-05-08T17:28:57.666Z,99255.72
2018-05-08T17:33:00.152Z,99258.77
2018-05-08T17:37:02.634Z,99260.27
2018-05-08T17:41:05.131Z,99249.66
2018-05-08T17:45:07.619Z,99237.98
2018-05-08T17:49:10.079Z,99234.21
2018-05-08T17:53:12.564Z,99246.58
2018-05-08T17:57:15.027Z,99248.57
2018-05-08T18:01:17.513Z,99254.53
2018-05-08T18:05:20.000Z,99256.50
2018-05-08T18:09:22.455Z,99258.83
2018-05-08T18:13:24.934Z,99257.45
2018-05-08T18:17:27.502Z,99266.77
2018-05-08T18:21:29.885Z,99271.20
2018-05-08T18:25:32.392Z,99258.94
2018-05-08T18:29:34.868Z,99252.81
2018-05-08T18:33:37.357Z,99256.09
2018-05-08T18:37:39.904Z,99260.61
2018-05-08T18:41:42.378Z,99276.30
2018-05-08T18:45:44.865Z,99283.78
2018-05-08T18:49:47.451Z,99284.39
2018-05-08T18:53:49.852Z,99288.44
2018-05-08T18:57:52.335Z,99284.55
2018-05-08T19:01:54.835Z,99285.59
2018-05-08T19:05:57.294Z,99280.30
2018-05-08T19:09:59.779Z,99281.20
2018-05-08T19:14:02.264Z,99272.41
2018-05-08T19:18:04.752Z,99268.63
2018-05-08T19:22:07.209Z,99264.77
2018-05-08T19:26:09.741Z,99263.63
2018-05-08T19:30:17.916Z,99265.09
2018-05-08T19:34:20.424Z,99264.33
2018-05-08T19:38:22.899Z,99268.41
2018-05-08T19:42:25.359Z,99268.97
2018-05-08T19:46:27.843Z,99265.03
2018-05-08T19:50:30.567Z,99265.59
2018-05-08T19:54:33.252Z,99263.06
2018-05-08T19:58:37.015Z,99269.47
2018-05-08T20:02:39.523Z,99272.35
2018-05-08T20:06:42.034Z,99274.80
2018-05-08T20:10:44.673Z,99278.45
2018-05-08T20:14:47.410Z,99278.53
2018-05-08T20:18:49.930Z,99278.56
2018-05-08T20:22:53.191Z,99268.02
2018-05-08T20:26:55.747Z,99275.22
2018-05-08T20:30:58.333Z,99276.17
2018-05-08T20:35:00.809Z,99278.48
2018-05-08T20:39:03.294Z,99280.32
2018-05-08T20:43:05.921Z,99264.84
2018-05-08T20:47:08.444Z,99270.80
2018-05-08T20:51:10.926Z,99263.81
2018-05-08T20:55:13.409Z,99259.48
2018-05-08T20:59:15.860Z,99259.65
2018-05-08T21:03:18.344Z,99263.84
2018-05-08T21:07:20.813Z,99263.93
2018-05-08T21:11:27.132Z,99262.25
2018-05-08T21:15:29.623Z,99269.84
2018-05-08T21:19:34.020Z,99259.71
2018-05-08T21:23:36.538Z,99268.59
2018-05-08T21:27:44.647Z,99267.30
2018-05-08T21:31:47.163Z,99265.19
2018-05-08T21:35:49.647Z,99252.84
2018-05-08T21:39:52.217Z,99253.83
2018-05-08T21:43:54.640Z,99257.07
2018-05-08T21:47:57.105Z,99254.09
2018-05-08T21:51:59.686Z,99246.80
2018-05-08T21:56:02.092Z,99245.59
2018-05-08T22:00:04.651Z,99239.11
2018-05-08T22:04:07.095Z,99238.80
2018-05-08T22:08:09.573Z,99232.70
2018-05-08T22:12:12.059Z,99235.47
2018-05-08T22:16:14.537Z,99232.03
2018-05-08T22:20:17.014Z,99243.16
2018-05-08T22:24:19.513Z,99238.35
2018-05-08T22:28:22.004Z,99235.92
2018-05-08T22:32:24.488Z,99230.72
2018-05-08T22:36:26.971Z,99233.13
2018-05-08T22:40:29.483Z,99233.67
2018-05-08T22:44:31.977Z,99233.31
2018-05-08T22:48:34.451Z,99237.80
2018-05-08T22:52:36.916Z,99231.23
2018-05-08T22:56:39.620Z,99229.88
2018-05-08T23:00:42.150Z,99224.17
2018-05-08T23:04:44.595Z,99224.64
2018-05-08T23:08:47.126Z,99223.81
2018-05-08T23:12:49.559Z,99224.75
2018-05-08T23:16:52.024Z,99222.48
2018-05-08T23:20:54.507Z,99218.55
2018-05-08T23:24:56.978Z,99224.81
2018-05-08T23:28:59.443Z,99220.45
2018-05-08T23:33:01.918Z,99214.74
2018-05-08T23:37:04.362Z,99213.45
2018-05-08T23:41:06.837Z,99216.18
2018-05-08T23:45:09.294Z,99218.44
2018-05-08T23:49:11.772Z,99217.11
2018-05-08T23:53:14.246Z,99221.59
2018-05-08T23:57:16.732Z,99219.47
